2004 FRANK (2004026S12063)


On this page: IBTrACS data - Map and Plots - Positions - Intensities - Original source data

Summary

Start Jan 26
End Feb 9
Basin SI
LMI 125 kt
Sources jtwc_sh
reunion
neumann
In WMO? Yes
Previous storm 2004 ELITA (SI)
Previous in basin 2004 ELITA (SI)
Concurrent storms 2004 ELITA (SI)
2004 FRANK (SI)
2004 LINDA (SI)
Next in basin 2004 LINDA (SI)
Next storm 2004 LINDA (SI)

top of page IBTrACS Data: File Access

top of page HURSAT Data: File Access

Image of storm

top of page Plots:

Map of storm track will not appear if FTP is down
Time series of cyclone Maximum Sustained Wind will not appear if FTP is down
Time series of cyclone Minimum Central Pressure will not appear if FTP is down

top of page Track Data:Position

jtwc_sh reunion neumann
Date Lat Lon Lat Lon Lat Lon
2004-01-26 00:00:00 -11.7 63.2 -11.7 63.2
2004-01-26 06:00:00 -11.7 63.5 -11.7 63.5
2004-01-26 12:00:00 -11.7 63.8 -11.6 64.4 -11.7 63.8
2004-01-26 18:00:00 -11.6 64.1 -11.3 64.6 -11.6 64.1
2004-01-27 00:00:00 -11.4 64.3 -11.0 64.9 -11.4 64.3
2004-01-27 06:00:00 -11.2 64.5 -10.9 64.9 -11.2 64.5
2004-01-27 12:00:00 -11.5 64.7 -11.3 64.6 -11.5 64.7
2004-01-27 18:00:00 -11.9 64.9 -11.9 64.9 -11.9 64.9
2004-01-28 00:00:00 -12.5 64.9 -12.5 64.8 -12.5 64.9
2004-01-28 06:00:00 -13.2 64.6 -13.3 64.7 -13.2 64.6
2004-01-28 12:00:00 -14.1 64.5 -14.2 64.4 -14.1 64.5
2004-01-28 18:00:00 -14.8 64.0 -15.0 64.1 -14.8 64.0
2004-01-29 00:00:00 -15.4 63.8 -15.3 63.9 -15.4 63.8
2004-01-29 06:00:00 -15.8 63.6 -15.7 63.7 -15.8 63.6
2004-01-29 12:00:00 -16.1 63.4 -16.1 63.3 -16.1 63.4
2004-01-29 18:00:00 -16.4 63.1 -16.4 63.1 -16.4 63.1
2004-01-30 00:00:00 -16.3 62.6 -16.3 62.5 -16.3 62.6
2004-01-30 06:00:00 -16.1 62.1 -15.9 62.2 -16.1 62.1
2004-01-30 12:00:00 -15.8 61.9 -15.6 61.9 -15.8 61.9
2004-01-30 18:00:00 -15.6 61.7 -15.5 61.6 -15.6 61.7
2004-01-31 00:00:00 -15.4 61.6 -15.3 61.6 -15.4 61.6
2004-01-31 06:00:00 -15.2 61.7 -15.3 61.7 -15.2 61.7
2004-01-31 12:00:00 -15.4 61.9 -15.6 62.0 -15.4 61.9
2004-01-31 18:00:00 -15.7 62.1 -15.7 62.1 -15.7 62.1
2004-02-01 00:00:00 -15.9 62.5 -15.9 62.4 -15.9 62.5
jtwc_sh reunion neumann
2004-02-01 06:00:00 -16.1 63.1 -16.0 63.2 -16.1 63.1
2004-02-01 12:00:00 -16.3 64.0 -16.1 64.3 -16.3 64.0
2004-02-01 18:00:00 -16.7 65.0 -16.7 65.2 -16.7 65.0
2004-02-02 00:00:00 -16.9 66.1 -17.0 66.2 -16.9 66.1
2004-02-02 06:00:00 -17.1 67.1 -17.2 67.4 -17.1 67.1
2004-02-02 12:00:00 -17.2 68.1 -17.2 68.1 -17.2 68.1
2004-02-02 18:00:00 -17.3 69.1 -17.4 69.1 -17.3 69.1
2004-02-03 00:00:00 -17.4 69.9 -17.5 70.1 -17.4 69.9
2004-02-03 06:00:00 -17.5 70.6 -17.6 70.8 -17.5 70.6
2004-02-03 12:00:00 -17.8 70.8 -17.8 70.9 -17.8 70.8
2004-02-03 18:00:00 -18.1 70.8 -18.0 70.8 -18.1 70.8
2004-02-04 00:00:00 -18.3 70.7 -18.3 70.6 -18.3 70.7
2004-02-04 06:00:00 -18.5 70.4 -18.5 70.4 -18.5 70.4
2004-02-04 12:00:00 -18.8 70.1 -18.8 70.1 -18.8 70.1
2004-02-04 18:00:00 -19.1 69.9 -19.1 69.9 -19.1 69.9
2004-02-05 00:00:00 -19.6 69.9 -19.6 70.0 -19.6 69.9
2004-02-05 06:00:00 -20.1 70.1 -20.2 70.3 -20.1 70.1
2004-02-05 12:00:00 -20.6 70.6 -20.7 70.8 -20.6 70.6
2004-02-05 18:00:00 -21.2 71.2 -21.1 71.4 -21.2 71.2
2004-02-06 00:00:00 -21.7 72.0 -21.6 72.2 -21.7 72.0
2004-02-06 06:00:00 -22.2 73.0 -22.3 73.4 -22.2 73.0
2004-02-06 12:00:00 -23.0 74.3 -23.1 74.7 -23.0 74.3
2004-02-06 18:00:00 -23.9 75.9 -24.2 76.1 -23.9 75.9
2004-02-07 00:00:00 -25.1 77.4 -25.2 77.5 -25.1 77.4
jtwc_sh reunion neumann
2004-02-07 06:00:00 -26.4 79.0 -26.4 79.0 -26.4 79.0
2004-02-07 12:00:00 -27.7 80.5
2004-02-07 18:00:00 -29.0 82.5
2004-02-08 00:00:00 -30.2 84.8
2004-02-08 06:00:00 -30.8 86.8
2004-02-08 12:00:00 -31.1 88.5
2004-02-08 18:00:00 -31.2 90.0
2004-02-09 00:00:00 -31.3 91.1
2004-02-09 06:00:00 -31.5 92.7

top of pageTrack Data:Intensity

jtwc_sh reunion neumann
Date Wind Pres Wind Pres Wind Pres
2004-01-26 00:00:00 15. 1006. 15.
2004-01-26 06:00:00 15. 1006. 15.
2004-01-26 12:00:00 20. 1004. 20. 1005. 20.
2004-01-26 18:00:00 25. 1002. 25. 1004. 25.
2004-01-27 00:00:00 30. 1000. 25. 1004. 30.
2004-01-27 06:00:00 30. 1000. 25. 1003. 30.
2004-01-27 12:00:00 35. 997. 27. 1001. 35.
2004-01-27 18:00:00 45. 991. 30. 997. 45.
2004-01-28 00:00:00 50. 987. 40. 990. 50.
2004-01-28 06:00:00 55. 984. 50. 985. 55.
2004-01-28 12:00:00 55. 984. 55. 980. 55.
2004-01-28 18:00:00 65. 976. 60. 975. 65.
2004-01-29 00:00:00 75. 967. 65. 970. 75.
2004-01-29 06:00:00 90. 954. 65. 970. 90.
2004-01-29 12:00:00 90. 954. 65. 970. 90.
2004-01-29 18:00:00 90. 954. 65. 970. 90.
2004-01-30 00:00:00 90. 954. 75. 960. 90.
2004-01-30 06:00:00 95. 949. 85. 950. 95.
2004-01-30 12:00:00 100. 944. 85. 950. 100.
2004-01-30 18:00:00 110. 933. 90. 945. 110.
2004-01-31 00:00:00 110. 933. 90. 945. 110.
2004-01-31 06:00:00 110. 933. 90. 945. 110.
2004-01-31 12:00:00 110. 933. 85. 950. 110.
2004-01-31 18:00:00 110. 933. 85. 950. 110.
2004-02-01 00:00:00 115. 927. 80. 955. 115.
jtwc_sh reunion neumann
2004-02-01 06:00:00 105. 938. 80. 955. 105.
2004-02-01 12:00:00 105. 938. 85. 950. 105.
2004-02-01 18:00:00 105. 938. 95. 940. 105.
2004-02-02 00:00:00 120. 922. 100. 930. 120.
2004-02-02 06:00:00 120. 922. 100. 930. 120.
2004-02-02 12:00:00 125. 916. 100. 930. 125.
2004-02-02 18:00:00 115. 927. 95. 935. 115.
2004-02-03 00:00:00 110. 933. 95. 935. 110.
2004-02-03 06:00:00 100. 944. 90. 940. 100.
2004-02-03 12:00:00 90. 954. 85. 945. 90.
2004-02-03 18:00:00 100. 944. 85. 945. 100.
2004-02-04 00:00:00 115. 927. 95. 935. 115.
2004-02-04 06:00:00 115. 927. 95. 935. 115.
2004-02-04 12:00:00 110. 933. 95. 935. 110.
2004-02-04 18:00:00 105. 938. 90. 940. 105.
2004-02-05 00:00:00 105. 938. 85. 945. 105.
2004-02-05 06:00:00 100. 944. 80. 955. 100.
2004-02-05 12:00:00 85. 958. 75. 960. 85.
2004-02-05 18:00:00 75. 967. 65. 970. 75.
2004-02-06 00:00:00 65. 976. 50. 985. 65.
2004-02-06 06:00:00 50. 987. 40. 990. 50.
2004-02-06 12:00:00 45. 991. 40. 990. 45.
2004-02-06 18:00:00 40. 994. 35. 992. 40.
2004-02-07 00:00:00 30. 1000. 35. 992. 30.
jtwc_sh reunion neumann
2004-02-07 06:00:00 30. 1000. 30. 994. 30.
2004-02-07 12:00:00 30. 994.
2004-02-07 18:00:00 30. 995.
2004-02-08 00:00:00 30. 995.
2004-02-08 06:00:00 30. 996.
2004-02-08 12:00:00 30. 996.
2004-02-08 18:00:00 30. 997.
2004-02-09 00:00:00 27. 998.
2004-02-09 06:00:00 25. 999.

top of page Links to source data

Source Source file Format
jtwc_sh bsh102004.txt ATCF
reunion Best-Tracks-NewWMOFormat.txt:Line=279:FRANK WMO (old format)
neumann tracks.sh:Storm=1289:FRANK:BSH102004:JTWC HURDAT